createdAt,value
2019-05-10T00:00:06.906Z,5.90
2019-05-10T00:02:53.159Z,5.33
2019-05-10T00:05:39.990Z,4.97
2019-05-10T00:08:26.962Z,5.53
2019-05-10T00:10:57.477Z,5.25
2019-05-10T00:13:27.368Z,5.87
2019-05-10T00:15:55.817Z,5.33
2019-05-10T00:18:24.240Z,5.50
2019-05-10T00:20:52.667Z,5.70
2019-05-10T00:23:21.094Z,5.95
2019-05-10T00:25:51.321Z,6.15
2019-05-10T00:28:19.664Z,5.70
2019-05-10T00:30:48.149Z,6.10
2019-05-10T00:33:16.652Z,6.35
2019-05-10T00:35:45.084Z,5.85
2019-05-10T00:38:13.519Z,6.53
2019-05-10T00:40:41.954Z,6.75
2019-05-10T00:43:10.385Z,6.10
2019-05-10T00:45:38.796Z,7.05
2019-05-10T00:48:07.230Z,6.55
2019-05-10T00:50:35.646Z,7.72
2019-05-10T00:53:04.923Z,6.62
2019-05-10T00:55:33.376Z,6.20
2019-05-10T00:58:01.800Z,6.70
2019-05-10T01:00:30.298Z,7.33
2019-05-10T01:02:58.740Z,6.65
2019-05-10T01:05:27.248Z,7.08
2019-05-10T01:07:55.676Z,7.53
2019-05-10T01:10:24.120Z,6.95
2019-05-10T01:12:52.541Z,7.60
2019-05-10T01:15:21.039Z,7.58
2019-05-10T01:17:49.478Z,8.88
2019-05-10T01:20:17.899Z,9.73
2019-05-10T01:22:46.355Z,10.10
2019-05-10T01:25:14.938Z,11.25
2019-05-10T01:27:43.446Z,11.15
2019-05-10T01:30:12.142Z,11.60
2019-05-10T01:32:40.735Z,12.05
2019-05-10T01:35:09.297Z,11.43
2019-05-10T01:37:37.746Z,11.83
2019-05-10T01:40:06.724Z,12.58
2019-05-10T01:42:35.146Z,13.28
2019-05-10T01:45:05.082Z,14.20
2019-05-10T01:47:33.564Z,14.35
2019-05-10T01:50:01.968Z,16.62
2019-05-10T01:52:30.409Z,17.23
2019-05-10T01:54:58.860Z,17.15
2019-05-10T01:57:27.328Z,16.90
2019-05-10T01:59:55.722Z,17.70
2019-05-10T02:02:24.198Z,19.70
2019-05-10T02:04:52.629Z,19.45
2019-05-10T02:07:21.048Z,22.42
2019-05-10T02:09:49.510Z,22.45
2019-05-10T02:12:17.932Z,23.38
2019-05-10T02:14:47.138Z,24.20
2019-05-10T02:17:15.586Z,23.92
2019-05-10T02:19:44.052Z,24.75
2019-05-10T02:22:13.247Z,24.55
2019-05-10T02:24:41.743Z,25.92
2019-05-10T02:27:10.156Z,26.12
2019-05-10T02:29:38.585Z,26.27
2019-05-10T02:32:07.046Z,26.50
2019-05-10T02:34:35.637Z,25.57
2019-05-10T02:37:04.146Z,27.30
2019-05-10T02:39:32.582Z,25.95
2019-05-10T02:42:01.032Z,26.42
2019-05-10T02:44:29.455Z,27.07
2019-05-10T02:46:57.883Z,27.13
2019-05-10T02:49:26.318Z,26.70
2019-05-10T02:51:54.759Z,26.80
2019-05-10T02:54:23.202Z,26.42
2019-05-10T02:56:53.172Z,27.32
2019-05-10T02:59:21.867Z,31.15
2019-05-10T03:01:53.384Z,29.32
2019-05-10T03:04:23.847Z,27.25
2019-05-10T03:09:24.466Z,30.65
2019-05-10T03:11:55.285Z,31.85
2019-05-10T03:14:26.505Z,32.85
2019-05-10T03:16:54.947Z,28.67
2019-05-10T03:19:23.665Z,32.23
2019-05-10T03:21:57.555Z,32.88
2019-05-10T03:24:27.980Z,33.13
2019-05-10T03:26:56.162Z,32.48
2019-05-10T03:29:24.629Z,32.65
2019-05-10T03:31:53.036Z,32.50
2019-05-10T03:34:21.705Z,33.95
2019-05-10T03:36:50.298Z,32.63
2019-05-10T03:39:18.732Z,32.80
2019-05-10T03:41:47.284Z,32.65
2019-05-10T03:44:15.724Z,34.50
2019-05-10T03:46:44.144Z,30.45
2019-05-10T03:49:12.621Z,32.40
2019-05-10T03:51:41.049Z,32.85
2019-05-10T03:54:09.481Z,32.58
2019-05-10T03:56:37.922Z,32.45
2019-05-10T03:59:06.398Z,32.53
2019-05-10T04:01:35.681Z,32.20
2019-05-10T04:04:04.123Z,33.13
2019-05-10T04:06:32.550Z,31.30
2019-05-10T04:09:01.000Z,32.53
2019-05-10T04:11:29.420Z,30.35
2019-05-10T04:13:57.847Z,32.35
2019-05-10T04:16:26.309Z,31.02
2019-05-10T04:18:54.786Z,29.75
2019-05-10T04:21:23.267Z,28.17
2019-05-10T04:23:51.683Z,28.95
2019-05-10T04:26:20.119Z,30.57
2019-05-10T04:28:48.828Z,28.32
2019-05-10T04:31:17.254Z,31.45
2019-05-10T04:33:45.715Z,30.82
2019-05-10T04:36:14.133Z,29.55
2019-05-10T04:38:42.583Z,29.67
2019-05-10T04:41:11.036Z,28.38
2019-05-10T04:43:39.459Z,30.40
2019-05-10T04:46:08.239Z,31.35
2019-05-10T04:48:36.741Z,29.20
2019-05-10T04:51:05.169Z,31.82
2019-05-10T04:53:33.586Z,31.27
2019-05-10T04:56:02.016Z,31.20
2019-05-10T04:58:30.481Z,27.80
2019-05-10T05:00:58.928Z,31.95
2019-05-10T05:03:27.370Z,32.17
2019-05-10T05:05:55.798Z,29.27
2019-05-10T05:08:24.287Z,32.67
2019-05-10T05:10:52.729Z,31.10
2019-05-10T05:13:21.124Z,30.93
2019-05-10T05:15:49.557Z,30.90
2019-05-10T05:18:17.984Z,30.10
2019-05-10T05:20:46.447Z,29.87
2019-05-10T05:23:27.311Z,30.12
2019-05-10T05:25:55.822Z,28.60
2019-05-10T05:28:24.706Z,30.62
2019-05-10T05:30:53.161Z,29.45
2019-05-10T05:33:21.586Z,29.95
2019-05-10T05:35:50.027Z,28.07
2019-05-10T05:38:18.464Z,29.32
2019-05-10T05:40:47.088Z,30.95
2019-05-10T05:43:15.510Z,28.83
2019-05-10T05:45:44.284Z,30.35
2019-05-10T05:48:16.091Z,28.05
2019-05-10T05:50:42.888Z,30.37
2019-05-10T05:53:11.316Z,29.00
2019-05-10T05:55:39.836Z,28.95
2019-05-10T05:58:24.096Z,29.63
2019-05-10T06:00:44.803Z,27.55
2019-05-10T06:03:08.582Z,27.65
2019-05-10T06:05:37.462Z,29.98
2019-05-10T06:08:21.446Z,29.18
2019-05-10T06:10:36.233Z,28.47
2019-05-10T06:13:04.640Z,30.60
2019-05-10T06:15:33.079Z,29.57
2019-05-10T06:18:03.277Z,32.53
2019-05-10T06:20:31.685Z,32.15
2019-05-10T06:23:06.267Z,30.08
2019-05-10T06:25:39.300Z,28.20
2019-05-10T06:28:00.423Z,29.20
2019-05-10T06:30:28.850Z,30.30
2019-05-10T06:33:00.820Z,28.00
2019-05-10T06:35:27.484Z,29.18
2019-05-10T06:37:55.910Z,28.43
2019-05-10T06:40:32.597Z,24.85
2019-05-10T06:42:54.527Z,25.57
2019-05-10T06:45:22.954Z,24.52
2019-05-10T06:47:53.425Z,23.70
2019-05-10T06:50:29.057Z,21.65
2019-05-10T06:52:52.331Z,23.20
2019-05-10T06:55:20.933Z,19.70
2019-05-10T06:57:50.423Z,19.20
2019-05-10T07:00:19.840Z,19.60
2019-05-10T07:02:48.270Z,19.55
2019-05-10T07:05:16.711Z,17.15
2019-05-10T07:07:45.742Z,18.52
2019-05-10T07:10:18.997Z,18.32
2019-05-10T07:12:45.681Z,16.44
2019-05-10T07:15:14.733Z,17.98
2019-05-10T07:17:46.992Z,17.45
2019-05-10T07:20:13.863Z,17.75
2019-05-10T07:22:42.561Z,19.32
2019-05-10T07:25:11.450Z,18.07
2019-05-10T07:27:39.883Z,20.52
2019-05-10T07:30:08.573Z,20.17
2019-05-10T07:32:37.435Z,21.02
2019-05-10T07:35:06.951Z,21.65
2019-05-10T07:37:36.052Z,22.48
2019-05-10T07:40:06.724Z,22.25
2019-05-10T07:42:39.914Z,24.37
2019-05-10T07:45:08.908Z,24.70
2019-05-10T07:47:37.349Z,26.23
2019-05-10T07:50:09.775Z,25.52
2019-05-10T07:52:43.357Z,25.72
2019-05-10T07:55:10.324Z,24.50
2019-05-10T07:57:38.416Z,24.07
2019-05-10T08:00:07.849Z,24.77
2019-05-10T08:02:36.278Z,23.55
2019-05-10T08:05:11.082Z,21.35
2019-05-10T08:07:38.548Z,21.85
2019-05-10T08:10:08.749Z,20.03
2019-05-10T08:12:41.321Z,22.73
2019-05-10T08:15:09.214Z,21.48
2019-05-10T08:17:41.063Z,22.15
2019-05-10T08:20:14.596Z,21.17
2019-05-10T08:22:41.413Z,19.23
2019-05-10T08:25:09.082Z,19.57
2019-05-10T08:27:44.005Z,18.90
2019-05-10T08:30:22.605Z,17.20
2019-05-10T08:32:39.061Z,15.38
2019-05-10T08:35:15.951Z,15.77
2019-05-10T08:40:06.871Z,15.32
2019-05-10T08:42:44.196Z,15.15
2019-05-10T08:45:08.962Z,15.50
2019-05-10T08:47:37.260Z,15.65
2019-05-10T08:50:22.399Z,15.90
2019-05-10T08:52:36.322Z,16.15
2019-05-10T08:55:07.492Z,15.55
2019-05-10T08:57:43.337Z,15.53
2019-05-10T09:02:38.457Z,17.23
2019-05-10T09:05:07.138Z,14.43
2019-05-10T09:07:39.017Z,11.12
2019-05-10T09:10:09.833Z,9.98
2019-05-10T09:12:41.760Z,9.23
2019-05-10T09:15:12.580Z,9.10
2019-05-10T09:17:42.608Z,9.30
2019-05-10T09:20:14.026Z,9.88
2019-05-10T09:22:42.367Z,11.12
2019-05-10T09:25:12.843Z,10.30
2019-05-10T09:27:43.204Z,10.13
2019-05-10T09:30:14.216Z,11.28
2019-05-10T09:32:43.532Z,10.18
2019-05-10T09:35:12.882Z,9.15
2019-05-10T09:37:42.217Z,8.73
2019-05-10T09:40:13.303Z,8.10
2019-05-10T09:42:43.712Z,7.62
2019-05-10T09:45:12.914Z,7.53
2019-05-10T09:47:43.347Z,7.42
2019-05-10T09:50:12.767Z,7.30
2019-05-10T09:52:41.417Z,6.67
2019-05-10T09:55:14.489Z,7.67
2019-05-10T09:57:40.086Z,7.17
2019-05-10T10:00:09.757Z,7.20
2019-05-10T10:02:40.675Z,7.67
2019-05-10T10:05:08.669Z,7.45
2019-05-10T10:07:37.455Z,8.33
2019-05-10T10:10:07.343Z,8.23
2019-05-10T10:12:37.301Z,9.50
2019-05-10T10:17:38.652Z,8.65
2019-05-10T10:20:08.441Z,8.35
2019-05-10T10:22:38.100Z,8.10
2019-05-10T10:25:07.374Z,8.10
2019-05-10T10:27:39.337Z,7.97
2019-05-10T10:30:12.637Z,7.03
2019-05-10T10:32:38.315Z,5.97
2019-05-10T10:35:07.831Z,6.60
2019-05-10T10:37:37.849Z,6.33
2019-05-10T10:40:08.575Z,6.20
2019-05-10T10:42:38.237Z,6.10
2019-05-10T10:45:08.243Z,6.33
2019-05-10T10:47:38.116Z,6.55
2019-05-10T10:50:13.278Z,6.65
2019-05-10T10:52:38.836Z,6.90
2019-05-10T10:55:11.390Z,6.10
2019-05-10T10:57:38.358Z,5.80
2019-05-10T11:00:09.827Z,6.05
2019-05-10T11:02:41.242Z,5.92
2019-05-10T11:05:09.142Z,6.10
2019-05-10T11:07:41.505Z,6.35
2019-05-10T11:10:17.955Z,6.28
2019-05-10T11:12:41.018Z,6.17
2019-05-10T11:15:11.221Z,5.90
2019-05-10T11:17:40.767Z,6.03
2019-05-10T11:22:41.832Z,6.20
2019-05-10T11:25:10.436Z,6.70
2019-05-10T11:27:38.881Z,6.67
2019-05-10T11:30:08.047Z,6.65
2019-05-10T11:32:36.485Z,6.22
2019-05-10T11:35:06.186Z,6.75
2019-05-10T11:37:36.307Z,6.70
2019-05-10T11:40:11.325Z,6.95
2019-05-10T11:42:43.772Z,6.87
2019-05-10T11:45:11.189Z,6.67
2019-05-10T11:47:40.936Z,6.47
2019-05-10T11:50:26.609Z,6.47
2019-05-10T11:52:41.983Z,6.00
2019-05-10T11:55:11.732Z,5.72
2019-05-10T11:57:43.967Z,5.95
2019-05-10T12:00:24.528Z,6.35
2019-05-10T12:03:01.703Z,6.83
2019-05-10T12:05:20.102Z,6.20
2019-05-10T12:07:45.847Z,6.15
2019-05-10T12:13:00.489Z,7.00
2019-05-10T12:15:14.209Z,6.78
2019-05-10T12:17:46.336Z,6.05
2019-05-10T12:20:16.925Z,6.62
2019-05-10T12:22:47.492Z,6.50
2019-05-10T12:25:36.390Z,6.03
2019-05-10T12:26:27.548Z,6.62
2019-05-10T12:27:48.649Z,6.83
2019-05-10T12:30:16.049Z,6.62
2019-05-10T12:32:55.510Z,6.47
2019-05-10T12:35:14.942Z,6.12
2019-05-10T12:37:46.473Z,6.50
2019-05-10T12:40:15.081Z,6.00
2019-05-10T12:45:13.440Z,5.70
2019-05-10T12:47:41.879Z,5.78
2019-05-10T12:50:11.539Z,5.90
2019-05-10T12:52:42.990Z,5.65
2019-05-10T12:55:10.599Z,5.47
2019-05-10T12:57:42.936Z,5.47
2019-05-10T13:02:39.587Z,5.62
2019-05-10T13:05:08.440Z,5.30
2019-05-10T13:07:37.341Z,5.75
2019-05-10T13:10:09.344Z,6.10
2019-05-10T13:12:44.552Z,6.00
2019-05-10T13:15:09.168Z,5.70
2019-05-10T13:17:37.592Z,5.50
2019-05-10T13:20:09.266Z,5.85
2019-05-10T13:22:39.466Z,12.70
2019-05-10T13:25:08.406Z,12.25
2019-05-10T13:27:37.020Z,12.00
2019-05-10T13:30:07.361Z,12.43
2019-05-10T13:32:35.868Z,12.85
2019-05-10T13:35:05.542Z,12.45
2019-05-10T13:37:33.997Z,12.75
2019-05-10T13:40:05.443Z,12.40
2019-05-10T13:42:36.417Z,12.50
2019-05-10T13:45:02.742Z,12.50
2019-05-10T13:47:31.200Z,12.53
2019-05-10T13:49:59.619Z,12.80
2019-05-10T13:52:29.909Z,13.08
2019-05-10T13:54:58.207Z,12.40
2019-05-10T13:57:26.708Z,12.35
2019-05-10T13:59:57.308Z,12.60
2019-05-10T14:02:32.464Z,12.33
2019-05-10T14:04:55.471Z,12.37
2019-05-10T14:07:23.932Z,12.47
2019-05-10T14:09:52.371Z,12.65
2019-05-10T14:12:23.218Z,12.18
2019-05-10T14:14:55.605Z,12.40
2019-05-10T14:17:21.193Z,13.20
2019-05-10T14:19:49.650Z,13.13
2019-05-10T14:22:18.066Z,12.18
2019-05-10T14:24:52.175Z,12.35
2019-05-10T14:27:18.170Z,12.80
2019-05-10T14:29:46.631Z,13.25
2019-05-10T14:32:15.088Z,12.80
2019-05-10T14:34:44.483Z,12.58
2019-05-10T14:37:14.152Z,12.53
2019-05-10T14:39:43.823Z,12.60
2019-05-10T14:42:12.259Z,12.53
2019-05-10T14:44:40.692Z,12.43
2019-05-10T14:47:11.098Z,12.18
2019-05-10T14:52:08.643Z,12.35
2019-05-10T14:54:43.536Z,12.07
2019-05-10T14:57:07.304Z,12.58
2019-05-10T14:59:35.728Z,12.23
2019-05-10T15:02:04.658Z,12.58
2019-05-10T15:04:48.421Z,13.07
2019-05-10T15:07:03.219Z,13.43
2019-05-10T15:09:31.688Z,6.40
2019-05-10T15:12:00.133Z,5.47
2019-05-10T15:14:28.553Z,6.00
2019-05-10T15:16:56.983Z,5.60
2019-05-10T15:19:27.303Z,5.80
2019-05-10T15:21:55.558Z,5.55
2019-05-10T15:24:24.000Z,5.95
2019-05-10T15:26:52.411Z,5.55
2019-05-10T15:29:22.576Z,5.97
2019-05-10T15:31:51.075Z,6.30
2019-05-10T15:34:19.517Z,6.37
2019-05-10T15:36:47.946Z,6.33
2019-05-10T15:39:16.365Z,6.15
2019-05-10T15:41:44.801Z,6.20
2019-05-10T15:44:13.222Z,6.58
2019-05-10T15:46:42.496Z,5.60
2019-05-10T15:49:13.614Z,6.13
2019-05-10T15:51:41.370Z,5.85
2019-05-10T15:54:09.809Z,6.35
2019-05-10T15:56:41.803Z,6.53
2019-05-10T15:59:12.712Z,5.35
2019-05-10T16:01:38.537Z,5.35
2019-05-10T16:04:06.977Z,6.25
2019-05-10T16:06:37.670Z,6.15
2019-05-10T16:09:16.797Z,5.58
2019-05-10T16:11:37.525Z,7.70
2019-05-10T16:14:06.433Z,6.10
2019-05-10T16:16:37.230Z,6.95
2019-05-10T16:19:05.026Z,6.30
2019-05-10T16:21:33.447Z,5.80
2019-05-10T16:24:01.873Z,6.00
2019-05-10T16:26:30.323Z,6.05
2019-05-10T16:29:02.141Z,6.95
2019-05-10T16:31:28.934Z,5.83
2019-05-10T16:33:57.442Z,6.05
2019-05-10T16:36:28.528Z,6.22
2019-05-10T16:38:56.046Z,6.20
2019-05-10T16:41:26.884Z,6.00
2019-05-10T16:43:57.842Z,5.67
2019-05-10T16:46:24.790Z,6.10
2019-05-10T16:48:53.218Z,6.00
2019-05-10T16:51:21.650Z,6.00
2019-05-10T16:53:50.084Z,5.90
2019-05-10T16:56:19.486Z,6.08
2019-05-10T16:58:53.206Z,6.00
2019-05-10T17:01:24.815Z,6.92
2019-05-10T17:03:51.081Z,6.77
2019-05-10T17:06:19.145Z,5.97
2019-05-10T17:08:47.604Z,5.92
2019-05-10T17:11:16.024Z,6.53
2019-05-10T17:13:44.504Z,6.47
2019-05-10T17:16:17.094Z,6.00
2019-05-10T17:18:43.080Z,6.22
2019-05-10T17:21:11.504Z,5.80
2019-05-10T17:23:41.470Z,5.90
2019-05-10T17:26:10.090Z,6.30
2019-05-10T17:28:38.524Z,5.33
2019-05-10T17:31:08.129Z,5.67
2019-05-10T17:33:42.801Z,5.40
2019-05-10T17:36:08.700Z,5.80
2019-05-10T17:38:37.367Z,6.03
2019-05-10T17:41:05.912Z,6.12
2019-05-10T17:43:34.363Z,6.42
2019-05-10T17:46:02.789Z,6.53
2019-05-10T17:48:31.229Z,5.85
2019-05-10T17:50:59.673Z,6.05
2019-05-10T17:53:28.107Z,5.50
2019-05-10T17:56:01.767Z,5.55
2019-05-10T17:58:33.006Z,5.47
2019-05-10T18:00:57.658Z,5.37
2019-05-10T18:03:26.082Z,6.03
2019-05-10T18:05:54.521Z,5.83
2019-05-10T18:08:22.975Z,6.05
2019-05-10T18:10:51.409Z,6.10
2019-05-10T18:15:49.183Z,6.50
2019-05-10T18:18:18.486Z,6.53
2019-05-10T18:20:46.936Z,5.95
2019-05-10T18:23:21.134Z,5.75
2019-05-10T18:25:45.514Z,6.10
2019-05-10T18:28:17.775Z,6.93
2019-05-10T18:30:44.133Z,5.30
2019-05-10T18:33:14.050Z,5.80
2019-05-10T18:35:47.444Z,5.75
2019-05-10T18:38:13.002Z,6.33
2019-05-10T18:40:41.420Z,5.97
2019-05-10T18:43:09.864Z,7.12
2019-05-10T18:45:38.300Z,6.03
2019-05-10T18:48:06.838Z,6.58
2019-05-10T18:50:39.635Z,6.87
2019-05-10T18:55:33.081Z,6.17
2019-05-10T18:58:01.528Z,5.90
2019-05-10T19:00:29.953Z,5.95
2019-05-10T19:02:58.373Z,6.20
2019-05-10T19:05:31.461Z,7.20
2019-05-10T19:08:04.694Z,5.80
2019-05-10T19:10:27.127Z,6.55
2019-05-10T19:13:01.624Z,7.07
2019-05-10T19:15:26.266Z,6.70
2019-05-10T19:17:54.629Z,6.13
2019-05-10T19:20:23.069Z,7.12
2019-05-10T19:22:51.492Z,7.30
2019-05-10T19:25:19.939Z,6.72
2019-05-10T19:27:50.751Z,6.03
2019-05-10T19:30:20.713Z,6.75
2019-05-10T19:32:54.036Z,7.08
2019-05-10T19:35:19.005Z,7.90
2019-05-10T19:37:47.502Z,8.15
2019-05-10T19:40:16.091Z,8.65
2019-05-10T19:42:49.315Z,8.30
2019-05-10T19:45:19.410Z,8.20
2019-05-10T19:47:49.795Z,7.80
2019-05-10T19:50:16.542Z,8.33
2019-05-10T19:52:44.980Z,7.75
2019-05-10T19:55:19.516Z,8.73
2019-05-10T19:57:43.541Z,8.73
2019-05-10T20:00:12.625Z,8.45
2019-05-10T20:02:41.113Z,9.70
2019-05-10T20:05:09.803Z,9.30
2019-05-10T20:07:45.746Z,10.53
2019-05-10T20:10:08.825Z,8.45
2019-05-10T20:12:37.269Z,7.28
2019-05-10T20:15:09.637Z,7.80
2019-05-10T20:17:38.779Z,8.70
2019-05-10T20:20:10.220Z,7.57
2019-05-10T20:22:38.663Z,6.87
2019-05-10T20:25:08.723Z,7.20
2019-05-10T20:27:37.251Z,5.25
2019-05-10T20:30:07.899Z,6.65
2019-05-10T20:32:36.334Z,8.95
2019-05-10T20:35:06.897Z,8.65
2019-05-10T20:40:03.276Z,7.42
2019-05-10T20:42:31.687Z,6.40
2019-05-10T20:45:07.721Z,8.55
2019-05-10T20:47:30.256Z,9.03
2019-05-10T20:49:58.713Z,6.75
2019-05-10T20:52:27.161Z,7.37
2019-05-10T20:54:55.594Z,7.28
2019-05-10T20:57:24.019Z,9.13
2019-05-10T20:59:52.445Z,6.42
2019-05-10T21:02:20.929Z,11.05
2019-05-10T21:04:49.371Z,11.75
2019-05-10T21:07:17.812Z,10.53
2019-05-10T21:09:46.250Z,9.10
2019-05-10T21:12:14.697Z,7.95
2019-05-10T21:14:43.145Z,8.53
2019-05-10T21:17:11.569Z,10.20
2019-05-10T21:19:39.989Z,11.40
2019-05-10T21:22:08.592Z,11.80
2019-05-10T21:24:37.053Z,10.35
2019-05-10T21:27:05.706Z,10.35
2019-05-10T21:29:34.159Z,9.90
2019-05-10T21:32:02.627Z,8.35
2019-05-10T21:34:31.151Z,8.90
2019-05-10T21:36:59.587Z,10.20
2019-05-10T21:39:28.011Z,10.00
2019-05-10T21:41:56.452Z,10.65
2019-05-10T21:44:25.397Z,10.08
2019-05-10T21:46:54.052Z,8.65
2019-05-10T21:49:22.419Z,9.23
2019-05-10T21:51:50.856Z,10.20
2019-05-10T21:54:19.273Z,11.68
2019-05-10T21:56:47.691Z,8.95
2019-05-10T21:59:16.126Z,9.80
2019-05-10T22:01:44.555Z,8.40
2019-05-10T22:04:13.242Z,11.25
2019-05-10T22:06:41.706Z,11.12
2019-05-10T22:09:10.620Z,10.40
2019-05-10T22:11:39.015Z,8.95
2019-05-10T22:14:07.452Z,9.30
2019-05-10T22:16:35.877Z,10.20
2019-05-10T22:19:04.343Z,11.08
2019-05-10T22:21:32.761Z,13.53
2019-05-10T22:24:01.187Z,9.75
2019-05-10T22:26:29.641Z,10.43
2019-05-10T22:28:58.065Z,9.80
2019-05-10T22:31:26.483Z,10.23
2019-05-10T22:33:54.924Z,11.12
2019-05-10T22:36:23.367Z,11.63
2019-05-10T22:39:05.599Z,12.25
2019-05-10T22:41:22.030Z,11.18
2019-05-10T22:43:50.426Z,11.75
2019-05-10T22:46:18.847Z,12.03
2019-05-10T22:48:47.301Z,10.23
2019-05-10T22:51:15.857Z,11.22
2019-05-10T22:53:44.281Z,9.93
2019-05-10T22:56:12.706Z,10.43
2019-05-10T22:58:41.126Z,10.28
2019-05-10T23:01:09.587Z,12.58
2019-05-10T23:03:38.002Z,11.25
2019-05-10T23:06:06.469Z,10.55
2019-05-10T23:08:34.869Z,10.55
2019-05-10T23:11:03.321Z,11.20
2019-05-10T23:13:31.719Z,10.75
2019-05-10T23:16:00.234Z,10.65
2019-05-10T23:18:28.653Z,11.38
2019-05-10T23:20:57.108Z,11.43
2019-05-10T23:23:25.533Z,11.78
2019-05-10T23:25:54.131Z,9.28
2019-05-10T23:28:22.553Z,11.10
2019-05-10T23:30:56.623Z,11.10
2019-05-10T23:33:25.074Z,10.23
2019-05-10T23:35:53.488Z,13.32
2019-05-10T23:38:21.928Z,12.98
2019-05-10T23:40:50.375Z,12.93
2019-05-10T23:43:18.843Z,13.00
2019-05-10T23:45:47.274Z,13.43
2019-05-10T23:48:15.714Z,13.00
2019-05-10T23:50:44.149Z,12.18
2019-05-10T23:53:12.599Z,11.95
2019-05-10T23:55:41.024Z,14.70
2019-05-10T23:58:09.751Z,13.48
